Time;durP1;ratioP1;P1;durP2;ratioP2;P2;SDS_P1;SDS_P2;PMS_P1;PMS_P2;Temp;Humidity;BMP_temperature;BMP_pressure;BME280_temperature;BME280_humidity;BME280_pressure;Samples;Min_cycle;Max_cycle;Signal;HPM_P1;HPM_P2
2023/08/12 00:02:27;0.00;0.00;0.62;0.00;0.00;0.62;4.77;4.07;;;31.30;29.20;;;;;;2268376;61;20409;-58
2023/08/12 00:05:13;0.00;0.00;0.62;0.00;0.00;0.62;4.30;3.90;;;31.30;29.30;;;;;;2268397;61;20417;-60
2023/08/12 00:07:58;0.00;0.00;0.62;0.00;0.00;0.62;5.93;4.30;;;31.30;29.20;;;;;;2268448;61;20442;-57
2023/08/12 00:10:44;0.00;0.00;0.62;0.00;0.00;0.62;4.73;4.23;;;31.30;29.20;;;;;;2267618;61;20411;-55
2023/08/12 00:13:28;0.00;0.00;0.62;0.00;0.00;0.62;3.63;3.20;;;31.30;29.30;;;;;;2267638;61;20428;-57
2023/08/12 00:16:13;0.00;0.00;0.62;0.00;0.00;0.62;4.47;3.70;;;31.30;29.30;;;;;;2267864;61;20355;-59
2023/08/12 00:18:58;0.00;0.00;0.62;0.00;0.00;0.62;4.30;3.77;;;31.30;29.30;;;;;;2267407;61;20953;-58
2023/08/12 00:21:43;0.00;0.00;0.62;0.00;0.00;0.62;4.33;3.53;;;31.30;29.30;;;;;;2268091;61;20815;-57
2023/08/12 00:24:27;0.00;0.00;0.62;0.00;0.00;0.62;4.90;4.20;;;31.30;29.30;;;;;;2268485;61;20358;-62
2023/08/12 00:27:13;0.00;0.00;0.62;0.00;0.00;0.62;3.77;3.30;;;31.30;29.30;;;;;;2267895;61;20386;-57
2023/08/12 00:29:58;0.00;0.00;0.62;0.00;0.00;0.62;4.77;4.00;;;31.20;29.20;;;;;;2267932;61;20379;-59
2023/08/12 00:32:43;0.00;0.00;0.62;0.00;0.00;0.62;3.70;3.33;;;31.30;29.30;;;;;;2268367;61;20417;-59
2023/08/12 00:35:28;0.00;0.00;0.62;0.00;0.00;0.62;4.67;3.70;;;31.20;29.20;;;;;;2268092;61;20360;-60
2023/08/12 00:38:13;0.00;0.00;0.62;0.00;0.00;0.62;6.57;4.10;;;31.20;29.20;;;;;;2268119;61;20946;-58
2023/08/12 00:40:58;0.00;0.00;0.62;0.00;0.00;0.62;4.20;3.70;;;31.30;29.30;;;;;;2267683;61;20914;-57
2023/08/12 00:43:44;0.00;0.00;0.62;0.00;0.00;0.62;5.03;3.40;;;31.20;29.20;;;;;;2268394;61;20358;-56
2023/08/12 00:46:28;0.00;0.00;0.62;0.00;0.00;0.62;4.73;3.60;;;31.20;29.20;;;;;;2268366;61;20900;-59
2023/08/12 00:49:14;0.00;0.00;0.62;0.00;0.00;0.62;4.30;3.50;;;31.20;29.20;;;;;;2267835;61;20437;-58
2023/08/12 00:52:01;0.00;0.00;0.62;0.00;0.00;0.62;4.20;3.80;;;31.20;29.30;;;;;;2269220;61;20412;-54
2023/08/12 00:54:45;0.00;0.00;0.62;0.00;0.00;0.62;4.10;3.53;;;31.20;29.20;;;;;;2268978;61;20394;-58
2023/08/12 00:57:30;0.00;0.00;0.62;0.00;0.00;0.62;3.90;3.40;;;31.20;29.80;;;;;;2269064;61;20371;-57
2023/08/12 01:00:20;0.00;0.00;0.62;0.00;0.00;0.62;5.37;3.30;;;31.20;29.20;;;;;;2268608;61;20948;-57
2023/08/12 01:03:06;0.00;0.00;0.62;0.00;0.00;0.62;4.20;3.00;;;31.20;29.80;;;;;;2268645;61;20359;-59
2023/08/12 01:05:51;0.00;0.00;0.62;0.00;0.00;0.62;4.37;3.70;;;31.20;29.20;;;;;;2268777;61;20394;-56
2023/08/12 01:08:36;0.00;0.00;0.62;0.00;0.00;0.62;4.20;3.50;;;31.20;29.20;;;;;;2268173;61;20387;-57
2023/08/12 01:11:29;0.00;0.00;0.62;0.00;0.00;0.62;3.87;3.53;;;31.20;29.20;;;;;;2268221;61;20375;-55
2023/08/12 01:14:20;0.00;0.00;0.62;0.00;0.00;0.62;3.20;2.90;;;31.20;29.80;;;;;;2269037;61;20359;-60
2023/08/12 01:17:09;0.00;0.00;0.62;0.00;0.00;0.62;3.83;3.27;;;31.20;29.30;;;;;;2268742;61;20480;-57
2023/08/12 01:19:55;0.00;0.00;0.62;0.00;0.00;0.62;3.23;2.90;;;31.20;29.30;;;;;;2268416;61;20383;-58
2023/08/12 01:22:42;0.00;0.00;0.62;0.00;0.00;0.62;4.17;2.83;;;31.10;29.20;;;;;;2268990;61;20392;-57
2023/08/12 01:25:28;0.00;0.00;0.62;0.00;0.00;0.62;4.03;3.20;;;31.20;29.20;;;;;;2268830;61;20455;-59
2023/08/12 01:28:13;0.00;0.00;0.62;0.00;0.00;0.62;3.50;2.93;;;31.10;29.20;;;;;;2268761;61;20403;-60
2023/08/12 01:31:16;0.00;0.00;0.62;0.00;0.00;0.62;3.37;2.80;;;31.10;29.20;;;;;;2268395;61;20841;-62
2023/08/12 01:34:11;0.00;0.00;0.62;0.00;0.00;0.62;3.53;3.23;;;31.10;29.20;;;;;;2268366;61;20396;-62
2023/08/12 01:36:58;0.00;0.00;0.62;0.00;0.00;0.62;3.70;3.30;;;31.10;29.70;;;;;;2268872;61;20382;-63
2023/08/12 01:39:45;0.00;0.00;0.62;0.00;0.00;0.62;3.93;2.80;;;31.10;29.20;;;;;;2268438;61;20375;-62
2023/08/12 01:42:34;0.00;0.00;0.62;0.00;0.00;0.62;3.60;3.13;;;31.10;29.20;;;;;;2268253;61;20463;-62
2023/08/12 01:45:19;0.00;0.00;0.62;0.00;0.00;0.62;2.77;2.47;;;31.10;29.20;;;;;;2268958;61;20389;-62
2023/08/12 01:48:06;0.00;0.00;0.62;0.00;0.00;0.62;4.00;3.23;;;31.10;29.20;;;;;;2268426;61;20794;-62
2023/08/12 01:50:51;0.00;0.00;0.62;0.00;0.00;0.62;3.50;2.80;;;31.10;29.20;;;;;;2268902;61;20553;-63
2023/08/12 01:53:36;0.00;0.00;0.62;0.00;0.00;0.62;3.00;2.60;;;31.10;29.20;;;;;;2268905;61;20794;-60
2023/08/12 01:56:21;0.00;0.00;0.62;0.00;0.00;0.62;4.47;2.90;;;31.10;29.20;;;;;;2268517;61;20402;-61
2023/08/12 01:59:07;0.00;0.00;0.62;0.00;0.00;0.62;3.17;2.87;;;31.10;29.20;;;;;;2267978;61;20418;-62
2023/08/12 02:01:52;0.00;0.00;0.62;0.00;0.00;0.62;3.53;2.87;;;31.10;29.20;;;;;;2268330;61;20359;-62
2023/08/12 02:04:37;0.00;0.00;0.62;0.00;0.00;0.62;5.30;2.80;;;31.10;29.20;;;;;;2268536;61;20400;-61
2023/08/12 02:07:22;0.00;0.00;0.62;0.00;0.00;0.62;2.40;2.10;;;31.10;29.70;;;;;;2268870;61;20391;-62
2023/08/12 02:10:08;0.00;0.00;0.62;0.00;0.00;0.62;3.37;3.07;;;31.10;29.20;;;;;;2268159;61;20379;-62
2023/08/12 02:12:52;0.00;0.00;0.62;0.00;0.00;0.62;3.63;3.20;;;31.00;29.20;;;;;;2268555;61;20935;-61
2023/08/12 02:15:39;0.00;0.00;0.62;0.00;0.00;0.62;3.80;3.00;;;31.10;29.20;;;;;;2265196;61;20363;-60
2023/08/12 02:18:30;0.00;0.00;0.62;0.00;0.00;0.62;3.40;2.60;;;31.10;29.20;;;;;;2267854;61;20391;-61
2023/08/12 02:21:15;0.00;0.00;0.62;0.00;0.00;0.62;3.70;3.00;;;31.10;29.80;;;;;;2268807;61;20846;-62
2023/08/12 02:23:59;0.00;0.00;0.62;0.00;0.00;0.62;3.50;2.60;;;31.00;29.20;;;;;;2268625;61;20379;-60
2023/08/12 02:26:44;0.00;0.00;0.62;0.00;0.00;0.62;3.10;2.73;;;31.00;29.20;;;;;;2268481;61;20410;-60
2023/08/12 02:29:29;0.00;0.00;0.62;0.00;0.00;0.62;3.13;2.60;;;31.00;29.20;;;;;;2267925;61;20390;-61
2023/08/12 02:32:15;0.00;0.00;0.62;0.00;0.00;0.62;3.03;2.73;;;31.00;29.20;;;;;;2267869;61;20401;-56
2023/08/12 02:35:00;0.00;0.00;0.62;0.00;0.00;0.62;3.00;2.47;;;31.00;29.20;;;;;;2268782;61;20359;-59
2023/08/12 02:37:44;0.00;0.00;0.62;0.00;0.00;0.62;2.70;2.40;;;31.00;29.80;;;;;;2268600;61;20351;-61
2023/08/12 02:40:29;0.00;0.00;0.62;0.00;0.00;0.62;2.67;2.40;;;31.00;29.10;;;;;;2267590;61;20926;-59
2023/08/12 02:43:14;0.00;0.00;0.62;0.00;0.00;0.62;2.90;2.53;;;31.00;29.10;;;;;;2268670;61;20356;-60
2023/08/12 02:46:01;0.00;0.00;0.62;0.00;0.00;0.62;2.77;2.50;;;31.00;29.10;;;;;;2268138;61;20363;-58
2023/08/12 02:48:47;0.00;0.00;0.62;0.00;0.00;0.62;4.47;2.97;;;31.00;29.20;;;;;;2267920;61;20387;-57
2023/08/12 02:51:31;0.00;0.00;0.62;0.00;0.00;0.62;2.97;2.53;;;31.00;29.20;;;;;;2268761;61;20371;-61
2023/08/12 02:54:16;0.00;0.00;0.62;0.00;0.00;0.62;3.43;2.50;;;31.00;29.20;;;;;;2267951;61;20378;-61
2023/08/12 02:57:00;0.00;0.00;0.62;0.00;0.00;0.62;3.57;2.47;;;31.00;29.20;;;;;;2268437;61;20359;-59
2023/08/12 02:59:45;0.00;0.00;0.62;0.00;0.00;0.62;2.63;2.37;;;31.00;29.20;;;;;;2268055;61;20447;-59
2023/08/12 03:02:30;0.00;0.00;0.62;0.00;0.00;0.62;2.60;2.30;;;31.00;29.20;;;;;;2268384;61;20362;-61
2023/08/12 03:05:16;0.00;0.00;0.62;0.00;0.00;0.62;2.53;2.20;;;31.00;29.20;;;;;;2268165;61;20861;-57
2023/08/12 03:08:03;0.00;0.00;0.62;0.00;0.00;0.62;3.03;2.67;;;31.00;29.20;;;;;;2267933;61;20387;-62
2023/08/12 03:10:48;0.00;0.00;0.62;0.00;0.00;0.62;3.13;2.40;;;31.00;29.20;;;;;;2267882;61;20939;-59
2023/08/12 03:13:34;0.00;0.00;0.62;0.00;0.00;0.62;3.53;2.90;;;31.00;29.20;;;;;;2268185;61;20359;-62
2023/08/12 03:16:19;0.00;0.00;0.62;0.00;0.00;0.62;3.40;2.93;;;31.00;29.20;;;;;;2267778;61;20938;-61
2023/08/12 03:19:06;0.00;0.00;0.62;0.00;0.00;0.62;3.40;2.40;;;31.00;29.20;;;;;;2267633;61;20463;-59
2023/08/12 03:21:52;0.00;0.00;0.62;0.00;0.00;0.62;2.83;2.57;;;30.90;29.20;;;;;;2267879;61;20355;-56
2023/08/12 03:24:36;0.00;0.00;0.62;0.00;0.00;0.62;3.50;2.67;;;30.90;29.20;;;;;;2267943;61;20436;-64
2023/08/12 03:27:21;0.00;0.00;0.62;0.00;0.00;0.62;2.50;2.30;;;30.90;29.20;;;;;;2268056;61;20433;-61
2023/08/12 03:30:09;0.00;0.00;0.62;0.00;0.00;0.62;4.17;2.43;;;30.90;29.20;;;;;;2267027;61;20470;-56
2023/08/12 03:32:55;0.00;0.00;0.62;0.00;0.00;0.62;3.17;2.87;;;31.00;29.20;;;;;;2267558;61;20847;-57
2023/08/12 03:35:45;0.00;0.00;0.62;0.00;0.00;0.62;2.50;2.30;;;30.90;29.20;;;;;;2267794;61;20760;-58
2023/08/12 03:38:31;0.00;0.00;0.62;0.00;0.00;0.62;2.87;2.57;;;30.90;29.20;;;;;;2267532;61;20355;-58
2023/08/12 03:41:16;0.00;0.00;0.62;0.00;0.00;0.62;2.80;2.60;;;30.90;29.20;;;;;;2268471;61;20395;-60
2023/08/12 03:44:01;0.00;0.00;0.62;0.00;0.00;0.62;3.50;3.07;;;30.90;29.20;;;;;;2268250;61;20959;-56
2023/08/12 03:46:46;0.00;0.00;0.62;0.00;0.00;0.62;2.73;2.33;;;30.90;29.20;;;;;;2268412;61;20359;-59
2023/08/12 03:49:31;0.00;0.00;0.62;0.00;0.00;0.62;3.10;2.80;;;30.90;29.20;;;;;;2267465;61;20429;-60
2023/08/12 03:52:15;0.00;0.00;0.62;0.00;0.00;0.62;3.47;3.17;;;30.90;29.20;;;;;;2267874;61;20367;-60
2023/08/12 03:55:02;0.00;0.00;0.62;0.00;0.00;0.62;3.07;2.63;;;30.90;29.20;;;;;;2268370;61;20942;-60
2023/08/12 03:57:47;0.00;0.00;0.62;0.00;0.00;0.62;3.23;2.43;;;30.90;29.20;;;;;;2267973;61;20344;-62
2023/08/12 04:00:31;0.00;0.00;0.62;0.00;0.00;0.62;3.53;2.30;;;30.90;29.20;;;;;;2267929;61;20991;-53
2023/08/12 04:03:18;0.00;0.00;0.62;0.00;0.00;0.62;3.20;2.90;;;30.90;29.20;;;;;;2268133;61;20787;-62
2023/08/12 04:06:03;0.00;0.00;0.62;0.00;0.00;0.62;3.70;2.07;;;30.90;29.20;;;;;;2267903;61;20360;-62
2023/08/12 04:08:47;0.00;0.00;0.62;0.00;0.00;0.62;4.43;3.03;;;30.90;29.30;;;;;;2267222;61;20791;-59
2023/08/12 04:11:34;0.00;0.00;0.62;0.00;0.00;0.62;2.90;2.37;;;30.90;29.20;;;;;;2267961;61;20386;-59
2023/08/12 04:14:19;0.00;0.00;0.62;0.00;0.00;0.62;6.87;3.03;;;30.90;29.20;;;;;;2267744;61;20764;-59
2023/08/12 04:17:04;0.00;0.00;0.62;0.00;0.00;0.62;3.53;2.87;;;30.90;29.30;;;;;;2267828;61;20351;-59
2023/08/12 04:19:50;0.00;0.00;0.62;0.00;0.00;0.62;4.53;2.83;;;30.90;29.30;;;;;;2267555;61;20378;-59
2023/08/12 04:22:35;0.00;0.00;0.62;0.00;0.00;0.62;3.23;2.87;;;30.90;29.30;;;;;;2267666;61;20359;-58
2023/08/12 04:25:20;0.00;0.00;0.62;0.00;0.00;0.62;3.93;3.23;;;30.90;29.30;;;;;;2267732;61;20363;-61
2023/08/12 04:28:06;0.00;0.00;0.62;0.00;0.00;0.62;3.50;3.20;;;30.90;29.30;;;;;;2268365;61;20428;-57
2023/08/12 04:30:52;0.00;0.00;0.62;0.00;0.00;0.62;3.33;3.03;;;30.90;29.30;;;;;;2267730;61;20382;-60
2023/08/12 04:33:39;0.00;0.00;0.62;0.00;0.00;0.62;4.50;2.87;;;30.90;29.30;;;;;;2267975;61;20363;-59
2023/08/12 04:36:23;0.00;0.00;0.62;0.00;0.00;0.62;2.87;2.60;;;30.90;29.30;;;;;;2268224;61;20359;-57
2023/08/12 04:39:10;0.00;0.00;0.62;0.00;0.00;0.62;3.60;3.03;;;30.90;29.30;;;;;;2267357;61;20401;-59
2023/08/12 04:41:55;0.00;0.00;0.62;0.00;0.00;0.62;3.10;2.80;;;30.80;29.30;;;;;;2267910;61;20359;-59
2023/08/12 04:44:41;0.00;0.00;0.62;0.00;0.00;0.62;3.33;2.53;;;30.80;29.30;;;;;;2267655;61;20506;-58
2023/08/12 04:47:26;0.00;0.00;0.62;0.00;0.00;0.62;3.20;2.90;;;30.90;29.40;;;;;;2267633;61;20382;-61
2023/08/12 04:50:12;0.00;0.00;0.62;0.00;0.00;0.62;3.53;2.73;;;30.80;29.30;;;;;;2267658;61;20378;-56
2023/08/12 04:52:56;0.00;0.00;0.62;0.00;0.00;0.62;3.63;2.70;;;30.80;29.30;;;;;;2267811;61;20355;-58
2023/08/12 04:55:41;0.00;0.00;0.62;0.00;0.00;0.62;3.10;2.80;;;30.80;29.30;;;;;;2268037;61;20355;-56
2023/08/12 04:58:26;0.00;0.00;0.62;0.00;0.00;0.62;3.30;2.97;;;30.80;29.30;;;;;;2267540;61;20354;-56
2023/08/12 05:01:13;0.00;0.00;0.62;0.00;0.00;0.62;3.67;2.87;;;30.80;29.30;;;;;;2268002;61;20808;-55
2023/08/12 05:03:57;0.00;0.00;0.62;0.00;0.00;0.62;3.20;2.87;;;30.80;29.30;;;;;;2268412;61;20363;-64
2023/08/12 05:06:42;0.00;0.00;0.62;0.00;0.00;0.62;3.87;3.20;;;30.80;29.40;;;;;;2267751;61;20363;-57
2023/08/12 05:09:27;0.00;0.00;0.62;0.00;0.00;0.62;3.80;2.90;;;30.80;29.90;;;;;;2267258;61;20382;-53
2023/08/12 05:12:12;0.00;0.00;0.62;0.00;0.00;0.62;3.37;3.00;;;30.80;29.40;;;;;;2267973;61;20359;-57
2023/08/12 05:14:57;0.00;0.00;0.62;0.00;0.00;0.62;3.10;2.60;;;30.80;29.40;;;;;;2267502;61;20366;-59
2023/08/12 05:17:43;0.00;0.00;0.62;0.00;0.00;0.62;3.10;2.80;;;30.80;29.40;;;;;;2268378;61;20760;-60
2023/08/12 05:20:29;0.00;0.00;0.62;0.00;0.00;0.62;3.17;2.87;;;30.80;30.00;;;;;;2267345;61;20379;-58
2023/08/12 05:23:15;0.00;0.00;0.62;0.00;0.00;0.62;3.20;2.77;;;30.80;30.00;;;;;;2267828;61;20394;-58
2023/08/12 05:26:01;0.00;0.00;0.62;0.00;0.00;0.62;2.70;2.50;;;30.80;29.40;;;;;;2267813;61;20791;-60
2023/08/12 05:28:45;0.00;0.00;0.62;0.00;0.00;0.62;4.00;3.03;;;30.80;29.40;;;;;;2267338;61;20971;-60
2023/08/12 05:31:30;0.00;0.00;0.62;0.00;0.00;0.62;4.23;3.10;;;30.80;29.40;;;;;;2268233;61;20413;-66
2023/08/12 05:34:16;0.00;0.00;0.62;0.00;0.00;0.62;4.00;3.20;;;30.80;29.50;;;;;;2268526;61;20600;-55
2023/08/12 05:37:01;0.00;0.00;0.62;0.00;0.00;0.62;3.03;2.73;;;30.80;29.50;;;;;;2268795;61;20447;-60
2023/08/12 05:39:46;0.00;0.00;0.62;0.00;0.00;0.62;2.73;2.40;;;30.80;29.50;;;;;;2268372;61;20779;-59
2023/08/12 05:42:31;0.00;0.00;0.62;0.00;0.00;0.62;3.30;2.90;;;30.80;29.50;;;;;;2268869;61;20457;-60
2023/08/12 05:45:15;0.00;0.00;0.62;0.00;0.00;0.62;3.07;2.57;;;30.80;29.50;;;;;;2268564;61;20405;-64
2023/08/12 05:48:00;0.00;0.00;0.62;0.00;0.00;0.62;3.10;2.40;;;30.80;29.50;;;;;;2268750;61;20383;-61
2023/08/12 05:50:46;0.00;0.00;0.62;0.00;0.00;0.62;3.07;2.63;;;30.80;29.50;;;;;;2268526;61;20375;-60
2023/08/12 05:53:32;0.00;0.00;0.62;0.00;0.00;0.62;3.50;3.20;;;30.80;29.50;;;;;;2268693;61;20371;-59
2023/08/12 05:56:17;0.00;0.00;0.62;0.00;0.00;0.62;4.30;2.50;;;30.80;29.60;;;;;;2268980;61;20443;-60
2023/08/12 05:59:01;0.00;0.00;0.62;0.00;0.00;0.62;3.30;3.00;;;30.70;29.80;;;;;;2268332;61;20380;-60
2023/08/12 06:01:46;0.00;0.00;0.62;0.00;0.00;0.62;3.77;2.90;;;30.70;29.50;;;;;;2268426;61;20398;-59
2023/08/12 06:04:30;0.00;0.00;0.62;0.00;0.00;0.62;3.10;2.70;;;30.70;29.60;;;;;;2268530;61;20383;-60
2023/08/12 06:07:16;0.00;0.00;0.62;0.00;0.00;0.62;2.97;2.60;;;30.70;29.60;;;;;;2268403;61;20376;-62
2023/08/12 06:10:01;0.00;0.00;0.62;0.00;0.00;0.62;3.03;2.73;;;30.70;29.60;;;;;;2268254;61;20432;-59
2023/08/12 06:12:46;0.00;0.00;0.62;0.00;0.00;0.62;3.10;2.80;;;30.80;29.70;;;;;;2268698;61;20763;-58
2023/08/12 06:15:31;0.00;0.00;0.62;0.00;0.00;0.62;2.93;2.60;;;30.70;29.60;;;;;;2268637;61;20900;-61
2023/08/12 06:18:16;0.00;0.00;0.62;0.00;0.00;0.62;3.47;2.80;;;30.70;29.60;;;;;;2268335;61;20377;-60
2023/08/12 06:21:00;0.00;0.00;0.62;0.00;0.00;0.62;4.40;2.80;;;30.70;29.60;;;;;;2268432;61;20402;-61
2023/08/12 06:23:47;0.00;0.00;0.62;0.00;0.00;0.62;3.60;3.20;;;30.80;29.70;;;;;;2268623;61;20355;-59
2023/08/12 06:26:32;0.00;0.00;0.62;0.00;0.00;0.62;3.13;2.83;;;30.70;29.70;;;;;;2268738;61;20428;-57
2023/08/12 06:29:17;0.00;0.00;0.62;0.00;0.00;0.62;3.10;2.73;;;30.70;29.70;;;;;;2267982;61;20380;-62
2023/08/12 06:32:01;0.00;0.00;0.62;0.00;0.00;0.62;3.07;2.77;;;30.70;29.70;;;;;;2268498;61;20363;-59
2023/08/12 06:34:46;0.00;0.00;0.62;0.00;0.00;0.62;4.03;3.20;;;30.70;29.70;;;;;;2268218;61;20397;-58
2023/08/12 06:37:31;0.00;0.00;0.62;0.00;0.00;0.62;3.70;2.57;;;30.70;29.70;;;;;;2268561;61;20879;-57
2023/08/12 06:40:17;0.00;0.00;0.62;0.00;0.00;0.62;3.20;2.90;;;30.80;29.80;;;;;;2267952;61;20572;-54
2023/08/12 06:43:03;0.00;0.00;0.62;0.00;0.00;0.62;2.90;2.37;;;30.70;29.70;;;;;;2268233;61;20478;-56
2023/08/12 06:45:47;0.00;0.00;0.62;0.00;0.00;0.62;3.00;2.70;;;30.70;29.70;;;;;;2268116;61;21154;-59
2023/08/12 06:48:32;0.00;0.00;0.62;0.00;0.00;0.62;3.07;2.70;;;30.70;29.70;;;;;;2268368;61;20395;-60
2023/08/12 06:51:16;0.00;0.00;0.62;0.00;0.00;0.62;3.00;2.57;;;30.70;30.30;;;;;;2268363;61;20459;-59
2023/08/12 06:54:01;0.00;0.00;0.62;0.00;0.00;0.62;3.40;3.10;;;30.70;29.80;;;;;;2268720;61;20913;-57
2023/08/12 06:56:47;0.00;0.00;0.62;0.00;0.00;0.62;2.90;2.40;;;30.70;29.80;;;;;;2268367;61;20512;-62
2023/08/12 06:59:32;0.00;0.00;0.62;0.00;0.00;0.62;3.37;2.53;;;30.70;29.80;;;;;;2267453;61;20470;-59
2023/08/12 07:02:16;0.00;0.00;0.62;0.00;0.00;0.62;3.10;2.80;;;30.70;29.80;;;;;;2268722;61;20359;-59
2023/08/12 07:05:01;0.00;0.00;0.62;0.00;0.00;0.62;3.00;2.57;;;30.70;29.80;;;;;;2267706;61;20385;-61
2023/08/12 07:07:46;0.00;0.00;0.62;0.00;0.00;0.62;3.40;3.03;;;30.70;29.80;;;;;;2268485;61;20437;-60
2023/08/12 07:10:31;0.00;0.00;0.62;0.00;0.00;0.62;3.20;2.90;;;30.70;29.80;;;;;;2268459;61;20374;-61
2023/08/12 07:13:17;0.00;0.00;0.62;0.00;0.00;0.62;3.63;2.90;;;30.70;29.80;;;;;;2268406;61;20941;-58
2023/08/12 07:16:02;0.00;0.00;0.62;0.00;0.00;0.62;2.40;2.20;;;30.70;29.90;;;;;;2268572;61;20836;-61
2023/08/12 07:18:47;0.00;0.00;0.62;0.00;0.00;0.62;2.77;2.57;;;30.70;29.80;;;;;;2268397;61;20352;-61
2023/08/12 07:21:32;0.00;0.00;0.62;0.00;0.00;0.62;2.93;2.63;;;30.70;29.90;;;;;;2268477;61;20902;-59
2023/08/12 07:24:17;0.00;0.00;0.62;0.00;0.00;0.62;3.13;2.80;;;30.70;29.90;;;;;;2268623;61;20406;-57
2023/08/12 07:27:02;0.00;0.00;0.62;0.00;0.00;0.62;2.90;2.70;;;30.70;30.40;;;;;;2268074;61;20398;-61
2023/08/12 07:29:48;0.00;0.00;0.62;0.00;0.00;0.62;3.40;3.10;;;30.70;29.90;;;;;;2267995;61;20450;-58
2023/08/12 07:32:32;0.00;0.00;0.62;0.00;0.00;0.62;2.97;2.67;;;30.70;29.90;;;;;;2268670;61;20366;-60
2023/08/12 07:35:18;0.00;0.00;0.62;0.00;0.00;0.62;2.93;2.50;;;30.70;29.90;;;;;;2268284;61;20367;-56
2023/08/12 07:38:03;0.00;0.00;0.62;0.00;0.00;0.62;3.53;2.90;;;30.70;29.90;;;;;;2268474;61;20398;-61
2023/08/12 07:40:49;0.00;0.00;0.62;0.00;0.00;0.62;2.83;2.60;;;30.70;29.90;;;;;;2268099;61;20430;-55
2023/08/12 07:43:33;0.00;0.00;0.62;0.00;0.00;0.62;2.60;2.40;;;30.80;30.00;;;;;;2268502;61;20485;-55
2023/08/12 07:46:20;0.00;0.00;0.62;0.00;0.00;0.62;3.07;2.67;;;30.70;29.90;;;;;;2268566;61;20413;-58
2023/08/12 07:49:05;0.00;0.00;0.62;0.00;0.00;0.62;2.90;2.33;;;30.80;30.00;;;;;;2267605;61;20433;-58
2023/08/12 07:51:50;0.00;0.00;0.62;0.00;0.00;0.62;4.07;3.17;;;30.70;30.50;;;;;;2267884;61;20355;-58
2023/08/12 07:54:36;0.00;0.00;0.62;0.00;0.00;0.62;3.10;2.80;;;30.70;29.90;;;;;;2268438;61;21153;-56
2023/08/12 07:57:23;0.00;0.00;0.62;0.00;0.00;0.62;2.87;2.57;;;30.70;29.90;;;;;;2268015;61;20378;-60
2023/08/12 08:00:10;0.00;0.00;0.62;0.00;0.00;0.62;2.63;2.30;;;30.70;29.90;;;;;;2268058;61;20440;-56
2023/08/12 08:02:56;0.00;0.00;0.62;0.00;0.00;0.62;2.90;2.70;;;30.80;30.00;;;;;;2268594;61;20401;-59
2023/08/12 08:05:42;0.00;0.00;0.62;0.00;0.00;0.62;3.40;2.43;;;30.70;29.90;;;;;;2268026;61;20394;-60
2023/08/12 08:08:27;0.00;0.00;0.62;0.00;0.00;0.62;2.47;2.27;;;30.80;30.00;;;;;;2268032;61;20924;-58
2023/08/12 08:11:11;0.00;0.00;0.62;0.00;0.00;0.62;3.10;2.47;;;30.80;30.00;;;;;;2268214;61;20363;-59
2023/08/12 08:13:57;0.00;0.00;0.62;0.00;0.00;0.62;2.63;2.43;;;30.70;30.00;;;;;;2268253;61;20424;-56
2023/08/12 08:16:42;0.00;0.00;0.62;0.00;0.00;0.62;2.63;2.23;;;30.70;30.00;;;;;;2268361;61;20397;-58
2023/08/12 08:19:28;0.00;0.00;0.62;0.00;0.00;0.62;3.10;2.80;;;30.70;30.00;;;;;;2267701;61;20425;-59
2023/08/12 08:22:13;0.00;0.00;0.62;0.00;0.00;0.62;2.73;2.43;;;30.80;30.00;;;;;;2268126;61;20390;-59
2023/08/12 08:24:57;0.00;0.00;0.62;0.00;0.00;0.62;3.30;2.97;;;30.80;30.00;;;;;;2268242;61;20390;-60
2023/08/12 08:27:42;0.00;0.00;0.62;0.00;0.00;0.62;2.83;2.50;;;30.80;30.00;;;;;;2268028;61;20390;-60
2023/08/12 08:30:27;0.00;0.00;0.62;0.00;0.00;0.62;3.00;2.70;;;30.80;30.60;;;;;;2268006;61;20429;-58
2023/08/12 08:33:12;0.00;0.00;0.62;0.00;0.00;0.62;3.40;3.10;;;30.80;30.00;;;;;;2268273;61;20896;-66
2023/08/12 08:35:57;0.00;0.00;0.62;0.00;0.00;0.62;3.07;2.53;;;30.80;30.00;;;;;;2267850;61;20407;-60
2023/08/12 08:38:42;0.00;0.00;0.62;0.00;0.00;0.62;3.03;2.73;;;30.80;30.70;;;;;;2267975;61;20359;-62
2023/08/12 08:41:30;0.00;0.00;0.62;0.00;0.00;0.62;4.07;2.90;;;30.80;30.10;;;;;;2268261;61;20358;-60
2023/08/12 08:44:17;0.00;0.00;0.62;0.00;0.00;0.62;3.13;2.30;;;30.80;30.10;;;;;;2268228;61;20965;-58
2023/08/12 08:47:03;0.00;0.00;0.62;0.00;0.00;0.62;2.73;2.00;;;30.80;30.00;;;;;;2268495;61;20840;-59
2023/08/12 08:49:48;0.00;0.00;0.62;0.00;0.00;0.62;3.37;2.60;;;30.80;30.10;;;;;;2267826;61;20475;-60
2023/08/12 08:52:37;0.00;0.00;0.62;0.00;0.00;0.62;3.80;2.70;;;30.80;30.10;;;;;;2268456;61;20754;-61
2023/08/12 08:55:23;0.00;0.00;0.62;0.00;0.00;0.62;2.83;2.53;;;30.80;30.10;;;;;;2268111;61;20391;-59
2023/08/12 08:58:08;0.00;0.00;0.62;0.00;0.00;0.62;3.07;2.67;;;30.80;30.10;;;;;;2268213;61;20359;-62
2023/08/12 09:00:53;0.00;0.00;0.62;0.00;0.00;0.62;3.27;2.97;;;30.80;30.10;;;;;;2268305;61;20391;-61
2023/08/12 09:03:40;0.00;0.00;0.62;0.00;0.00;0.62;3.40;3.10;;;30.80;30.10;;;;;;2268192;61;20391;-65
2023/08/12 09:06:27;0.00;0.00;0.62;0.00;0.00;0.62;3.33;2.90;;;30.80;30.10;;;;;;2267990;61;20457;-61
2023/08/12 09:09:16;0.00;0.00;0.62;0.00;0.00;0.62;3.43;3.13;;;30.80;30.10;;;;;;2268134;61;20402;-60
2023/08/12 09:12:02;0.00;0.00;0.62;0.00;0.00;0.62;3.30;3.00;;;30.80;30.10;;;;;;2269026;61;20355;-61
2023/08/12 09:14:46;0.00;0.00;0.62;0.00;0.00;0.62;2.80;2.60;;;30.80;30.10;;;;;;2269141;61;20410;-61
2023/08/12 09:17:32;0.00;0.00;0.62;0.00;0.00;0.62;3.00;2.70;;;30.80;30.10;;;;;;2268911;61;20765;-61
2023/08/12 09:20:17;0.00;0.00;0.62;0.00;0.00;0.62;2.60;2.40;;;30.80;30.10;;;;;;2268427;61;20426;-62
2023/08/12 09:23:03;0.00;0.00;0.62;0.00;0.00;0.62;3.13;2.50;;;30.80;30.10;;;;;;2269319;61;20359;-58
2023/08/12 09:25:49;0.00;0.00;0.62;0.00;0.00;0.62;2.87;2.53;;;30.80;30.20;;;;;;2268546;61;20458;-62
2023/08/12 09:28:36;0.00;0.00;0.62;0.00;0.00;0.62;2.97;2.63;;;30.80;30.20;;;;;;2268350;61;20471;-59
2023/08/12 09:31:26;0.00;0.00;0.62;0.00;0.00;0.62;2.70;2.47;;;30.80;30.40;;;;;;2268853;61;20355;-59
2023/08/12 09:34:11;0.00;0.00;0.62;0.00;0.00;0.62;3.33;3.00;;;30.80;30.20;;;;;;2268746;61;20833;-59
2023/08/12 09:36:56;0.00;0.00;0.62;0.00;0.00;0.62;3.00;2.70;;;30.80;30.20;;;;;;2268975;61;20420;-58
2023/08/12 09:39:41;0.00;0.00;0.62;0.00;0.00;0.62;2.60;2.30;;;30.80;30.20;;;;;;2267911;61;20383;-59
2023/08/12 09:42:28;0.00;0.00;0.62;0.00;0.00;0.62;3.47;3.17;;;30.80;30.20;;;;;;2268095;61;20755;-59
2023/08/12 09:45:13;0.00;0.00;0.62;0.00;0.00;0.62;3.77;2.70;;;30.80;30.20;;;;;;2269002;61;20413;-59
2023/08/12 09:47:58;0.00;0.00;0.62;0.00;0.00;0.62;2.70;2.50;;;30.80;30.20;;;;;;2268239;61;20479;-56
2023/08/12 09:50:43;0.00;0.00;0.62;0.00;0.00;0.62;2.87;2.57;;;30.80;30.20;;;;;;2268306;61;20379;-59
2023/08/12 09:53:27;0.00;0.00;0.62;0.00;0.00;0.62;3.10;2.80;;;30.80;30.30;;;;;;2268583;61;20987;-56
2023/08/12 09:56:17;0.00;0.00;0.62;0.00;0.00;0.62;3.20;2.90;;;30.90;30.40;;;;;;2268376;61;20439;-61
2023/08/12 09:59:09;0.00;0.00;0.62;0.00;0.00;0.62;3.10;2.80;;;30.80;30.30;;;;;;2268248;61;20379;-60
2023/08/12 10:01:55;0.00;0.00;0.62;0.00;0.00;0.62;3.40;2.43;;;30.80;30.30;;;;;;2268470;61;20391;-60
2023/08/12 10:04:44;0.00;0.00;0.62;0.00;0.00;0.62;2.67;2.40;;;30.80;30.30;;;;;;2268234;61;20417;-60
2023/08/12 10:07:29;0.00;0.00;0.62;0.00;0.00;0.62;2.87;2.60;;;30.80;30.30;;;;;;2268725;61;20379;-60
2023/08/12 10:10:15;0.00;0.00;0.62;0.00;0.00;0.62;2.77;2.47;;;30.80;30.30;;;;;;2268268;61;20419;-60
2023/08/12 10:13:00;0.00;0.00;0.62;0.00;0.00;0.62;3.00;2.60;;;30.90;30.40;;;;;;2268656;61;20596;-62
2023/08/12 10:15:46;0.00;0.00;0.62;0.00;0.00;0.62;2.20;2.00;;;30.80;30.30;;;;;;2268775;61;20356;-60
2023/08/12 10:18:32;0.00;0.00;0.62;0.00;0.00;0.62;2.97;2.50;;;30.80;30.40;;;;;;2268105;61;20409;-58
2023/08/12 10:21:18;0.00;0.00;0.62;0.00;0.00;0.62;2.70;2.23;;;30.90;30.40;;;;;;2268613;61;20410;-61
2023/08/12 10:24:05;0.00;0.00;0.62;0.00;0.00;0.62;2.97;2.67;;;30.90;30.40;;;;;;2268383;61;20448;-59
2023/08/12 10:26:52;0.00;0.00;0.62;0.00;0.00;0.62;3.07;2.77;;;30.90;31.20;;;;;;2268608;61;20402;-59
2023/08/12 10:29:37;0.00;0.00;0.62;0.00;0.00;0.62;3.23;2.60;;;30.80;30.40;;;;;;2268287;61;20387;-58
2023/08/12 10:32:24;0.00;0.00;0.62;0.00;0.00;0.62;3.23;2.93;;;30.90;30.50;;;;;;2268696;61;20427;-60
2023/08/12 10:35:09;0.00;0.00;0.62;0.00;0.00;0.62;3.77;3.07;;;30.90;30.50;;;;;;2268662;61;20405;-59
2023/08/12 10:37:55;0.00;0.00;0.62;0.00;0.00;0.62;3.53;2.90;;;30.90;30.50;;;;;;2268764;61;20387;-57
2023/08/12 10:40:40;0.00;0.00;0.62;0.00;0.00;0.62;2.40;2.20;;;30.90;30.50;;;;;;2268692;61;20383;-62
2023/08/12 10:43:26;0.00;0.00;0.62;0.00;0.00;0.62;2.60;2.40;;;30.90;30.50;;;;;;2268738;61;20355;-57
2023/08/12 10:46:22;0.00;0.00;0.62;0.00;0.00;0.62;3.33;2.40;;;30.90;31.20;;;;;;2268404;61;20375;-62
2023/08/12 10:49:10;0.00;0.00;0.62;0.00;0.00;0.62;3.07;2.70;;;30.90;30.60;;;;;;2267935;61;20408;-59
2023/08/12 10:51:55;0.00;0.00;0.62;0.00;0.00;0.62;3.30;2.57;;;30.90;30.60;;;;;;2268690;61;20363;-61
2023/08/12 10:54:40;0.00;0.00;0.62;0.00;0.00;0.62;2.83;2.63;;;30.90;30.60;;;;;;2268301;61;20938;-59